Time;durP1;ratioP1;P1;durP2;ratioP2;P2;SDS_P1;SDS_P2;PMS_P1;PMS_P2;Temp;Humidity;BMP_temperature;BMP_pressure;BME280_temperature;BME280_humidity;BME280_pressure;Samples;Min_cycle;Max_cycle;Signal;HPM_P1;HPM_P2
2022/03/12 00:01:46;;;;;;;13.43;12.02;;;5.70;99.90;;;;;;5023543;28;20227;-80
2022/03/12 00:04:13;;;;;;;18.33;15.30;;;5.80;99.90;;;;;;5020048;28;20299;-79
2022/03/12 00:06:41;;;;;;;15.30;13.70;;;5.80;99.90;;;;;;5027076;28;20287;-78
2022/03/12 00:09:09;;;;;;;13.50;11.98;;;5.70;99.90;;;;;;5022434;28;20302;-79
2022/03/12 00:11:36;;;;;;;14.70;13.07;;;5.80;99.90;;;;;;5022278;28;20199;-78
2022/03/12 00:14:07;;;;;;;18.45;15.32;;;5.80;99.90;;;;;;5024631;28;20570;-76
2022/03/12 00:16:34;;;;;;;18.38;16.40;;;5.80;99.90;;;;;;5024794;28;20199;-79
2022/03/12 00:19:04;;;;;;;18.52;16.33;;;5.80;99.90;;;;;;5028075;28;20251;-81
2022/03/12 00:21:33;;;;;;;17.48;15.68;;;5.70;99.90;;;;;;5027444;28;20309;-77
2022/03/12 00:24:00;;;;;;;17.85;15.98;;;5.70;99.90;;;;;;5024694;28;20219;-76
2022/03/12 00:26:31;;;;;;;18.90;15.98;;;5.70;99.90;;;;;;5020867;28;20246;-76
2022/03/12 00:28:59;;;;;;;16.52;13.68;;;5.70;99.90;;;;;;5028836;28;20313;-80
2022/03/12 00:31:27;;;;;;;15.70;14.02;;;5.60;99.90;;;;;;5026634;28;20252;-77
2022/03/12 00:33:54;;;;;;;14.65;12.95;;;5.60;99.90;;;;;;5033562;28;20235;-78
2022/03/12 00:36:22;;;;;;;15.98;14.27;;;5.60;99.90;;;;;;5027301;28;20278;-76
2022/03/12 00:38:49;;;;;;;15.00;13.45;;;5.60;99.90;;;;;;5027768;28;20215;-78
2022/03/12 00:41:17;;;;;;;14.57;13.02;;;5.60;99.90;;;;;;5026373;28;20277;-77
2022/03/12 00:43:46;;;;;;;14.43;11.90;;;5.60;99.90;;;;;;5032951;28;20287;-76
2022/03/12 00:46:13;;;;;;;17.60;15.40;;;5.60;99.90;;;;;;5030578;28;20206;-78
2022/03/12 00:48:40;;;;;;;15.38;13.75;;;5.50;99.90;;;;;;5027102;28;20219;-77
2022/03/12 00:51:09;;;;;;;15.68;14.07;;;5.50;99.90;;;;;;5027452;28;20204;-77
2022/03/12 00:53:36;;;;;;;16.13;13.65;;;5.50;99.90;;;;;;5026676;28;20602;-76
2022/03/12 00:56:04;;;;;;;14.88;13.40;;;5.50;99.90;;;;;;5026076;28;20245;-78
2022/03/12 00:58:31;;;;;;;18.48;15.95;;;5.40;99.90;;;;;;5027023;28;20211;-77
2022/03/12 01:00:59;;;;;;;18.23;15.85;;;5.50;99.90;;;;;;5095317;23;20640;-77
2022/03/12 01:03:26;;;;;;;17.15;15.45;;;5.40;99.90;;;;;;5041449;28;20200;-77
2022/03/12 01:05:58;;;;;;;16.27;14.55;;;5.40;99.90;;;;;;5042125;28;20227;-78
2022/03/12 01:08:26;;;;;;;16.27;13.95;;;5.40;99.90;;;;;;5045721;28;20780;-76
2022/03/12 01:10:53;;;;;;;13.43;12.00;;;5.30;99.90;;;;;;5046073;28;20222;-77
2022/03/12 01:13:21;;;;;;;13.70;12.32;;;5.30;99.90;;;;;;5051702;28;20194;-77
2022/03/12 01:15:49;;;;;;;12.30;11.02;;;5.40;99.90;;;;;;5049211;28;20318;-76
2022/03/12 01:18:20;;;;;;;13.27;11.02;;;5.40;99.90;;;;;;5049039;28;20222;-76
2022/03/12 01:20:47;;;;;;;12.25;11.05;;;5.50;99.90;;;;;;5047438;28;20231;-77
2022/03/12 01:23:16;;;;;;;16.85;15.10;;;5.40;99.90;;;;;;5049115;28;20207;-76
2022/03/12 01:25:45;;;;;;;14.02;12.35;;;5.40;99.90;;;;;;5048338;28;20217;-74
2022/03/12 01:28:14;;;;;;;14.38;12.88;;;5.40;99.90;;;;;;5049376;28;20202;-76
2022/03/12 01:30:42;;;;;;;16.27;13.43;;;5.30;99.90;;;;;;5051594;28;20219;-77
2022/03/12 01:33:09;;;;;;;13.18;11.80;;;5.30;99.90;;;;;;5053277;28;20596;-76
2022/03/12 01:35:39;;;;;;;12.68;11.48;;;5.30;99.90;;;;;;5052321;28;20223;-81
2022/03/12 01:38:06;;;;;;;13.05;11.75;;;5.30;99.90;;;;;;5054221;28;20213;-77
2022/03/12 01:40:34;;;;;;;13.40;12.00;;;5.30;99.90;;;;;;5043019;28;20245;-75
2022/03/12 01:43:02;;;;;;;13.73;12.43;;;5.30;99.90;;;;;;5050634;28;20211;-75
2022/03/12 01:45:29;;;;;;;12.43;11.23;;;5.20;99.90;;;;;;5050112;28;20223;-76
2022/03/12 01:47:58;;;;;;;12.43;11.18;;;5.20;99.90;;;;;;5051106;28;20562;-77
2022/03/12 01:50:28;;;;;;;12.00;10.60;;;5.30;99.90;;;;;;5045029;28;20320;-77
2022/03/12 01:53:00;;;;;;;14.00;12.55;;;5.30;99.90;;;;;;5049084;28;20203;-76
2022/03/12 01:55:31;;;;;;;13.80;12.38;;;5.20;99.90;;;;;;5051391;28;20236;-79
2022/03/12 01:58:02;;;;;;;14.85;12.57;;;5.20;99.90;;;;;;5048597;28;20586;-77
2022/03/12 02:00:30;;;;;;;16.48;14.18;;;5.20;99.90;;;;;;5050634;28;20648;-77
2022/03/12 02:02:59;;;;;;;14.70;13.13;;;5.20;99.90;;;;;;5056297;28;20218;-77
2022/03/12 02:05:27;;;;;;;13.30;11.98;;;5.10;99.90;;;;;;5051315;28;20229;-75
2022/03/12 02:07:59;;;;;;;12.15;10.88;;;5.10;99.90;;;;;;5048835;28;20209;-79
2022/03/12 02:10:26;;;;;;;12.73;11.52;;;5.10;99.90;;;;;;5045802;28;20271;-77
2022/03/12 02:12:53;;;;;;;12.55;11.25;;;5.00;99.90;;;;;;5054347;28;20197;-82
2022/03/12 02:15:22;;;;;;;14.98;13.20;;;5.10;99.90;;;;;;5051528;28;20242;-78
2022/03/12 02:17:51;;;;;;;13.02;11.73;;;5.10;99.90;;;;;;5047155;28;20199;-78
2022/03/12 02:20:21;;;;;;;12.65;11.25;;;5.00;99.90;;;;;;5052601;28;20308;-81
2022/03/12 02:22:53;;;;;;;12.18;10.98;;;5.00;99.90;;;;;;5050982;28;20233;-76
2022/03/12 02:25:27;;;;;;;12.18;10.93;;;5.00;99.90;;;;;;5053548;28;20598;-81
2022/03/12 02:27:54;;;;;;;11.40;10.25;;;5.00;99.90;;;;;;5049664;28;20221;-77
2022/03/12 02:30:23;;;;;;;11.38;10.27;;;5.00;99.90;;;;;;5048187;28;20512;-77
2022/03/12 02:33:00;;;;;;;11.32;10.23;;;5.00;99.90;;;;;;5050732;28;20555;-79
2022/03/12 02:35:35;;;;;;;10.38;9.27;;;5.10;99.90;;;;;;5050481;28;20218;-76
2022/03/12 02:38:03;;;;;;;12.60;10.57;;;5.10;99.90;;;;;;5048302;28;20213;-81
2022/03/12 02:40:32;;;;;;;9.98;8.98;;;5.10;99.90;;;;;;5044334;28;20225;-76
2022/03/12 02:42:59;;;;;;;10.43;9.43;;;5.10;99.90;;;;;;5053662;28;20214;-76
2022/03/12 02:45:28;;;;;;;10.85;9.65;;;5.00;99.90;;;;;;5055280;28;20633;-75
2022/03/12 02:47:57;;;;;;;13.10;11.68;;;5.00;99.90;;;;;;5052432;28;20202;-76
2022/03/12 02:50:24;;;;;;;11.32;10.23;;;5.00;99.90;;;;;;5051589;28;20226;-76
2022/03/12 02:52:52;;;;;;;11.82;10.60;;;4.90;99.90;;;;;;5046443;28;20688;-77
2022/03/12 02:55:21;;;;;;;11.65;10.45;;;4.90;99.90;;;;;;5053362;28;20223;-81
2022/03/12 02:57:50;;;;;;;10.80;9.70;;;4.90;99.90;;;;;;5052425;28;20275;-80
2022/03/12 03:00:19;;;;;;;11.95;10.70;;;4.90;99.90;;;;;;5049760;28;20227;-83
2022/03/12 03:02:53;;;;;;;11.15;10.05;;;5.00;99.90;;;;;;5041228;28;20400;-78
2022/03/12 03:05:36;;;;;;;11.95;10.60;;;4.90;99.90;;;;;;5047655;28;20714;-81
2022/03/12 03:08:05;;;;;;;10.50;9.57;;;4.80;99.90;;;;;;5044376;28;20493;-77
2022/03/12 03:10:34;;;;;;;11.45;10.35;;;4.80;99.90;;;;;;5040413;28;20275;-76
2022/03/12 03:13:30;;;;;;;10.88;9.77;;;4.80;99.90;;;;;;5043532;28;20206;-75
2022/03/12 03:15:59;;;;;;;10.75;9.65;;;4.80;99.90;;;;;;5048208;28;20227;-76
2022/03/12 03:18:29;;;;;;;11.38;10.15;;;4.90;99.90;;;;;;5048612;28;20828;-75
2022/03/12 03:20:58;;;;;;;12.45;11.20;;;4.90;99.90;;;;;;5045656;28;20357;-78
2022/03/12 03:23:28;;;;;;;13.38;11.95;;;4.90;99.90;;;;;;5048377;28;20186;-76
2022/03/12 03:25:55;;;;;;;12.90;11.57;;;4.80;99.90;;;;;;5046643;28;20247;-77
2022/03/12 03:28:24;;;;;;;12.80;11.52;;;4.80;99.90;;;;;;5053820;28;20197;-76
2022/03/12 03:30:51;;;;;;;11.13;10.13;;;4.70;99.90;;;;;;5043782;28;20238;-76
2022/03/12 03:33:20;;;;;;;11.82;10.23;;;4.70;99.90;;;;;;5049257;28;20237;-75
2022/03/12 03:35:48;;;;;;;12.57;11.27;;;4.70;99.90;;;;;;5047220;28;20282;-77
2022/03/12 03:38:16;;;;;;;11.73;10.45;;;4.70;99.90;;;;;;5049905;28;20654;-77
2022/03/12 03:40:45;;;;;;;12.85;11.45;;;4.70;99.90;;;;;;5042154;28;20219;-74
2022/03/12 03:43:14;;;;;;;11.55;10.45;;;4.70;99.90;;;;;;5054137;28;20219;-77
2022/03/12 03:45:43;;;;;;;11.70;10.50;;;4.80;99.90;;;;;;5050714;28;20761;-76
2022/03/12 03:48:13;;;;;;;11.95;10.75;;;4.70;99.90;;;;;;5048723;28;20206;-78
2022/03/12 03:50:41;;;;;;;12.88;11.13;;;4.70;99.90;;;;;;5045455;28;20221;-78
2022/03/12 03:53:10;;;;;;;12.70;11.40;;;4.70;99.90;;;;;;5047610;28;20195;-78
2022/03/12 03:55:37;;;;;;;13.30;11.88;;;4.60;99.90;;;;;;5048978;28;20222;-80
2022/03/12 03:58:04;;;;;;;11.15;9.93;;;4.60;99.90;;;;;;5044322;28;20206;-78
2022/03/12 04:00:32;;;;;;;11.40;10.23;;;4.60;99.90;;;;;;5040870;28;20601;-76
2022/03/12 04:03:04;;;;;;;10.63;9.52;;;4.60;99.90;;;;;;5047068;28;20317;-76
2022/03/12 04:05:32;;;;;;;11.85;10.65;;;4.70;99.90;;;;;;5045654;28;20214;-75
2022/03/12 04:08:00;;;;;;;12.73;10.68;;;4.60;99.90;;;;;;5048046;28;20195;-76
2022/03/12 04:10:27;;;;;;;12.38;11.13;;;4.50;99.90;;;;;;5047614;28;20229;-75
2022/03/12 04:12:55;;;;;;;11.15;10.02;;;4.50;99.90;;;;;;5045511;28;20345;-77
2022/03/12 04:15:22;;;;;;;12.43;11.13;;;4.40;99.90;;;;;;5048675;28;20615;-78
2022/03/12 04:17:51;;;;;;;12.98;11.45;;;4.50;99.90;;;;;;5049825;28;20202;-76
2022/03/12 04:20:21;;;;;;;12.27;10.52;;;4.50;99.90;;;;;;5052779;28;20217;-79
2022/03/12 04:22:50;;;;;;;12.18;10.98;;;4.60;99.90;;;;;;5050524;28;20241;-79
2022/03/12 04:25:17;;;;;;;16.08;13.35;;;4.50;99.90;;;;;;5048028;28;20794;-76
2022/03/12 04:27:45;;;;;;;14.18;12.38;;;4.50;99.90;;;;;;5048515;28;20202;-75
2022/03/12 04:30:13;;;;;;;13.70;12.32;;;4.50;99.90;;;;;;5046109;28;20713;-78
2022/03/12 04:32:42;;;;;;;12.40;11.10;;;4.50;99.90;;;;;;5046864;28;20565;-78
2022/03/12 04:35:10;;;;;;;17.05;12.63;;;4.50;99.90;;;;;;5046784;28;20246;-77
2022/03/12 04:37:39;;;;;;;12.82;11.52;;;4.50;99.90;;;;;;5047639;28;20720;-77
2022/03/12 04:40:08;;;;;;;11.90;10.70;;;4.50;99.90;;;;;;5049864;28;20234;-76
2022/03/12 04:42:37;;;;;;;11.48;10.30;;;4.50;99.90;;;;;;5051096;28;20585;-79
2022/03/12 04:45:06;;;;;;;14.55;11.50;;;4.50;99.90;;;;;;5051084;28;20443;-78
2022/03/12 04:47:33;;;;;;;10.80;9.70;;;4.50;99.90;;;;;;5052037;28;20849;-78
2022/03/12 04:50:00;;;;;;;11.68;10.48;;;4.60;99.90;;;;;;5047691;28;20226;-77
2022/03/12 04:52:27;;;;;;;10.30;9.30;;;4.60;99.90;;;;;;5051051;28;20201;-79
2022/03/12 04:54:56;;;;;;;12.52;11.30;;;4.60;99.90;;;;;;5052544;28;20552;-77
2022/03/12 04:57:23;;;;;;;11.80;10.27;;;4.60;99.90;;;;;;5051425;28;20202;-76
2022/03/12 04:59:51;;;;;;;12.82;11.25;;;4.60;99.90;;;;;;5049457;28;20234;-77
2022/03/12 05:02:18;;;;;;;13.32;11.63;;;4.50;99.90;;;;;;5053100;28;20578;-77
2022/03/12 05:04:45;;;;;;;12.90;11.05;;;4.40;99.90;;;;;;5052781;28;20210;-79
2022/03/12 05:07:13;;;;;;;12.95;11.65;;;4.40;99.90;;;;;;5051586;28;20210;-77
2022/03/12 05:09:40;;;;;;;13.73;12.10;;;4.40;99.90;;;;;;5046792;28;20712;-77
2022/03/12 05:12:10;;;;;;;13.25;11.88;;;4.40;99.90;;;;;;5051557;28;20218;-77
2022/03/12 05:14:37;;;;;;;17.13;12.82;;;4.30;99.90;;;;;;5052460;28;20260;-77
2022/03/12 05:17:08;;;;;;;11.35;10.25;;;4.30;99.90;;;;;;5049349;28;20226;-78
2022/03/12 05:19:36;;;;;;;12.98;11.68;;;4.30;99.90;;;;;;5045303;28;20207;-77
2022/03/12 05:22:05;;;;;;;13.63;11.07;;;4.30;99.90;;;;;;5052945;28;20641;-76
2022/03/12 05:24:32;;;;;;;14.35;12.63;;;4.30;99.90;;;;;;5050766;28;20210;-76
2022/03/12 05:26:59;;;;;;;12.27;11.07;;;4.30;99.90;;;;;;5050475;28;20222;-78
2022/03/12 05:29:30;;;;;;;12.13;10.82;;;4.30;99.90;;;;;;5051882;28;20260;-75
2022/03/12 05:31:57;;;;;;;12.15;10.95;;;4.30;99.90;;;;;;5050276;28;20595;-76
2022/03/12 05:34:24;;;;;;;11.57;10.48;;;4.30;99.90;;;;;;5051798;28;20309;-78
2022/03/12 05:36:52;;;;;;;11.15;10.05;;;4.40;99.90;;;;;;5048606;28;20616;-79
2022/03/12 05:39:19;;;;;;;13.52;11.57;;;4.30;99.90;;;;;;5051490;28;20666;-79
2022/03/12 05:41:48;;;;;;;12.70;11.50;;;4.30;99.90;;;;;;5048464;28;20222;-78
2022/03/12 05:44:16;;;;;;;13.10;11.70;;;4.40;99.90;;;;;;5051208;28;20662;-77
2022/03/12 05:46:45;;;;;;;11.85;10.40;;;4.30;99.90;;;;;;5049039;28;20311;-77
2022/03/12 05:49:12;;;;;;;14.52;11.52;;;4.30;99.90;;;;;;5048794;28;20238;-75
2022/03/12 05:51:43;;;;;;;12.52;11.23;;;4.30;99.90;;;;;;5049487;28;20218;-79
2022/03/12 05:54:10;;;;;;;12.40;11.15;;;4.40;99.90;;;;;;5052272;28;20208;-77
2022/03/12 05:56:40;;;;;;;12.23;10.95;;;4.30;99.90;;;;;;5052799;28;20218;-76
2022/03/12 05:59:08;;;;;;;10.85;9.75;;;4.30;99.90;;;;;;5044390;28;20203;-77
2022/03/12 06:01:35;;;;;;;11.77;10.40;;;4.30;99.90;;;;;;5047990;28;20334;-76
2022/03/12 06:04:04;;;;;;;11.00;9.90;;;4.30;99.90;;;;;;5049260;28;20226;-77
2022/03/12 06:06:35;;;;;;;11.02;9.90;;;4.40;99.90;;;;;;5049283;28;20310;-74
2022/03/12 06:09:05;;;;;;;11.60;10.43;;;4.50;99.90;;;;;;5044375;28;20266;-77
2022/03/12 06:11:36;;;;;;;10.93;9.93;;;4.50;99.90;;;;;;5043353;28;20227;-76
2022/03/12 06:14:04;;;;;;;11.80;10.70;;;4.50;99.90;;;;;;5047373;28;20210;-76
2022/03/12 06:16:33;;;;;;;10.52;9.43;;;4.50;99.90;;;;;;5044536;28;20275;-75
2022/03/12 06:19:00;;;;;;;10.13;9.13;;;4.50;99.90;;;;;;5042445;28;20195;-76
2022/03/12 06:21:29;;;;;;;12.35;11.15;;;4.60;99.90;;;;;;5044584;28;20238;-78
2022/03/12 06:23:58;;;;;;;13.00;11.10;;;4.50;99.90;;;;;;5047477;28;20297;-77
2022/03/12 06:26:25;;;;;;;13.77;12.38;;;4.60;99.90;;;;;;5046312;28;20273;-76
2022/03/12 06:28:53;;;;;;;13.10;11.80;;;4.60;99.90;;;;;;5047430;28;20203;-77
2022/03/12 06:31:20;;;;;;;11.80;10.70;;;4.70;99.90;;;;;;5050754;28;20308;-76
2022/03/12 06:33:49;;;;;;;12.57;11.38;;;4.80;99.90;;;;;;5055176;28;20198;-76
2022/03/12 06:36:16;;;;;;;11.63;10.45;;;4.80;99.90;;;;;;5046922;28;20797;-80
2022/03/12 06:38:44;;;;;;;10.60;9.50;;;4.90;99.90;;;;;;5049643;28;20569;-80
2022/03/12 06:41:12;;;;;;;11.40;10.30;;;5.00;99.90;;;;;;5047394;28;20583;-76
2022/03/12 06:43:42;;;;;;;12.02;10.27;;;5.10;99.90;;;;;;5048584;28;20222;-77
2022/03/12 06:46:14;;;;;;;11.20;10.10;;;5.10;99.90;;;;;;5048305;28;20306;-78
2022/03/12 06:48:42;;;;;;;12.52;11.23;;;5.20;99.90;;;;;;5049775;28;20202;-76
2022/03/12 06:51:10;;;;;;;12.80;11.57;;;5.10;99.90;;;;;;5040997;28;20222;-77
2022/03/12 06:53:37;;;;;;;13.38;11.10;;;5.10;99.90;;;;;;5045896;28;20587;-78
2022/03/12 06:56:07;;;;;;;12.18;10.98;;;5.00;99.90;;;;;;5050205;28;20305;-77
2022/03/12 06:58:35;;;;;;;11.85;10.68;;;5.00;99.90;;;;;;5050959;28;20638;-77
2022/03/12 07:01:03;;;;;;;10.90;9.77;;;5.10;99.90;;;;;;5178938;23;21337;-75
2022/03/12 07:03:30;;;;;;;10.68;9.57;;;5.20;99.90;;;;;;5026159;28;20579;-75
2022/03/12 07:05:58;;;;;;;13.35;10.98;;;5.10;99.90;;;;;;5021199;28;20220;-77
2022/03/12 07:08:25;;;;;;;12.00;10.80;;;5.10;99.90;;;;;;5018862;28;20395;-76
2022/03/12 07:10:52;;;;;;;13.27;11.98;;;5.10;99.90;;;;;;5019209;28;20230;-75
2022/03/12 07:13:21;;;;;;;12.30;11.00;;;5.10;99.90;;;;;;5036625;28;20211;-79
2022/03/12 07:15:49;;;;;;;13.63;11.25;;;5.20;99.90;;;;;;5028925;28;20227;-75
2022/03/12 07:18:17;;;;;;;13.65;12.10;;;5.20;99.90;;;;;;5026514;28;20257;-75
2022/03/12 07:20:44;;;;;;;15.25;12.52;;;5.20;99.90;;;;;;5029092;28;20246;-74
2022/03/12 07:23:11;;;;;;;14.02;12.48;;;5.20;99.90;;;;;;5034513;28;20250;-76
2022/03/12 07:25:38;;;;;;;14.32;12.82;;;5.30;99.90;;;;;;5025618;28;20220;-77
2022/03/12 07:28:06;;;;;;;12.93;11.52;;;5.30;99.90;;;;;;5029235;28;20520;-73
2022/03/12 07:30:34;;;;;;;13.95;12.48;;;5.40;99.90;;;;;;5030397;28;20262;-78
2022/03/12 07:33:01;;;;;;;14.18;12.68;;;5.50;99.90;;;;;;5026929;28;20250;-74
2022/03/12 07:35:29;;;;;;;14.73;13.18;;;5.60;99.90;;;;;;5026177;28;20564;-79
2022/03/12 07:37:57;;;;;;;13.00;11.70;;;5.70;99.90;;;;;;5018383;28;20204;-80
2022/03/12 07:40:24;;;;;;;11.73;10.63;;;5.80;99.90;;;;;;5033033;28;20284;-74
2022/03/12 07:42:51;;;;;;;13.30;11.90;;;5.90;99.90;;;;;;5031295;28;20253;-74
2022/03/12 07:45:19;;;;;;;13.68;11.30;;;6.00;99.90;;;;;;5029207;28;20195;-73
2022/03/12 07:47:49;;;;;;;15.23;13.63;;;6.00;99.90;;;;;;5025119;28;20192;-75
2022/03/12 07:50:16;;;;;;;16.38;14.07;;;6.10;99.90;;;;;;5034129;28;20221;-74
2022/03/12 07:52:44;;;;;;;16.10;14.25;;;6.10;99.90;;;;;;5029456;28;20219;-76
2022/03/12 07:55:13;;;;;;;18.08;15.50;;;6.00;99.90;;;;;;5029631;28;20199;-73
2022/03/12 07:57:41;;;;;;;15.45;13.65;;;5.90;99.90;;;;;;5036273;28;20671;-74
2022/03/12 08:00:11;;;;;;;15.65;14.02;;;5.90;99.90;;;;;;5033487;28;20203;-75
2022/03/12 08:02:38;;;;;;;15.90;14.30;;;5.90;99.90;;;;;;5033311;28;20227;-73
2022/03/12 08:05:07;;;;;;;16.80;13.88;;;6.00;99.90;;;;;;5034951;28;20200;-76
2022/03/12 08:07:34;;;;;;;16.73;13.90;;;6.10;99.90;;;;;;5028849;28;20212;-74
2022/03/12 08:10:01;;;;;;;18.92;16.42;;;6.20;99.90;;;;;;5033368;28;20678;-75
2022/03/12 08:12:30;;;;;;;21.65;18.10;;;6.20;99.90;;;;;;5036279;28;20235;-74
2022/03/12 08:14:58;;;;;;;16.75;14.15;;;6.30;99.90;;;;;;5034363;28;20200;-76
2022/03/12 08:17:25;;;;;;;18.60;16.60;;;6.30;99.90;;;;;;5031312;28;20231;-76
2022/03/12 08:19:53;;;;;;;20.90;17.10;;;6.50;99.90;;;;;;5033425;28;20199;-76
2022/03/12 08:22:21;;;;;;;20.42;17.92;;;6.50;99.90;;;;;;5033933;28;20278;-75
2022/03/12 08:24:48;;;;;;;20.02;16.67;;;6.50;99.90;;;;;;5032534;28;20230;-75
2022/03/12 08:27:15;;;;;;;19.23;17.02;;;6.50;99.90;;;;;;5033644;28;20221;-77
2022/03/12 08:29:44;;;;;;;22.55;19.75;;;6.40;99.90;;;;;;5034839;28;20242;-76
2022/03/12 08:32:11;;;;;;;24.75;20.95;;;6.30;99.90;;;;;;5042192;28;20228;-77
2022/03/12 08:34:39;;;;;;;25.38;21.52;;;6.20;99.90;;;;;;5041338;28;20266;-76
2022/03/12 08:37:06;;;;;;;29.45;24.70;;;6.20;99.90;;;;;;5037708;28;20722;-76
2022/03/12 08:39:35;;;;;;;24.33;21.33;;;6.10;99.90;;;;;;5043627;28;20226;-75
2022/03/12 08:42:03;;;;;;;24.30;20.35;;;6.10;99.90;;;;;;5028964;28;20305;-75
2022/03/12 08:44:30;;;;;;;25.05;20.80;;;6.20;99.90;;;;;;5032177;28;20677;-74
2022/03/12 08:46:57;;;;;;;27.33;22.25;;;6.20;99.90;;;;;;5028811;28;20246;-73
2022/03/12 08:49:24;;;;;;;29.00;22.15;;;6.20;99.90;;;;;;5042804;28;20230;-74
2022/03/12 08:51:51;;;;;;;25.00;20.52;;;6.20;99.90;;;;;;5040159;28;20242;-75
2022/03/12 08:54:18;;;;;;;26.27;22.00;;;6.20;99.90;;;;;;5032619;28;20609;-76
2022/03/12 08:56:46;;;;;;;29.55;24.30;;;6.20;99.90;;;;;;5029242;28;20216;-74
2022/03/12 08:59:13;;;;;;;30.05;21.88;;;6.20;99.90;;;;;;5042904;28;20221;-77
2022/03/12 09:01:43;;;;;;;32.72;25.02;;;6.20;99.90;;;;;;5032142;28;20759;-77
2022/03/12 09:04:10;;;;;;;27.77;22.38;;;6.30;99.90;;;;;;5031050;28;20716;-75
2022/03/12 09:06:38;;;;;;;28.10;23.20;;;6.30;99.90;;;;;;5034151;28;20281;-76
2022/03/12 09:09:05;;;;;;;27.33;22.45;;;6.30;99.90;;;;;;5027736;28;20200;-74
2022/03/12 09:11:32;;;;;;;25.27;22.05;;;6.30;99.90;;;;;;5029535;28;20215;-78
2022/03/12 09:14:01;;;;;;;24.65;20.50;;;6.50;99.90;;;;;;5032305;28;20192;-74
2022/03/12 09:16:30;;;;;;;30.13;23.05;;;6.50;99.90;;;;;;5032585;28;20778;-76
2022/03/12 09:18:57;;;;;;;26.98;21.23;;;6.50;99.90;;;;;;5042451;28;20225;-78
2022/03/12 09:21:25;;;;;;;32.17;24.77;;;6.60;99.90;;;;;;5044942;28;20255;-85
2022/03/12 09:23:52;;;;;;;33.40;23.85;;;6.60;99.90;;;;;;5039257;28;20216;-78
2022/03/12 09:26:20;;;;;;;28.50;24.40;;;6.60;99.90;;;;;;5036911;28;20606;-76
2022/03/12 09:28:48;;;;;;;29.88;24.55;;;6.70;99.90;;;;;;5035269;28;20200;-75
2022/03/12 09:31:16;;;;;;;32.05;23.50;;;6.70;99.90;;;;;;5026236;28;20314;-74
2022/03/12 09:33:43;;;;;;;29.98;23.50;;;6.80;99.90;;;;;;5036124;28;20241;-74
2022/03/12 09:36:10;;;;;;;31.90;24.65;;;6.80;99.90;;;;;;5030366;28;20570;-72
2022/03/12 09:38:38;;;;;;;29.13;22.30;;;6.90;99.90;;;;;;5035319;28;20210;-72
2022/03/12 09:41:05;;;;;;;26.92;21.23;;;7.00;99.90;;;;;;5028426;28;20231;-76
2022/03/12 09:43:32;;;;;;;27.73;20.13;;;7.20;99.90;;;;;;5026749;28;20227;-75
2022/03/12 09:46:00;;;;;;;25.80;19.90;;;7.20;99.90;;;;;;5029497;28;20226;-74
2022/03/12 09:48:29;;;;;;;24.58;19.00;;;7.30;99.90;;;;;;5030500;28;20203;-75
2022/03/12 09:50:56;;;;;;;25.95;19.80;;;7.60;99.90;;;;;;5031256;28;20215;-74
2022/03/12 09:53:23;;;;;;;25.77;21.70;;;7.90;99.90;;;;;;5032057;28;20602;-74
2022/03/12 09:55:50;;;;;;;29.00;22.38;;;8.10;99.90;;;;;;5031737;28;20203;-73
2022/03/12 09:58:18;;;;;;;27.63;22.60;;;8.20;99.90;;;;;;5035056;28;20207;-75
2022/03/12 10:00:45;;;;;;;27.85;21.08;;;8.40;99.90;;;;;;5032733;28;20199;-72
2022/03/12 10:03:13;;;;;;;29.10;22.58;;;8.70;99.90;;;;;;5035955;28;20211;-76
2022/03/12 10:05:41;;;;;;;31.35;22.98;;;8.90;99.90;;;;;;5034081;28;20200;-76
2022/03/12 10:08:08;;;;;;;28.63;23.08;;;8.90;99.90;;;;;;5028791;28;20211;-75
2022/03/12 10:10:36;;;;;;;27.13;22.27;;;9.40;99.90;;;;;;5037210;28;20200;-73
2022/03/12 10:13:04;;;;;;;26.27;21.45;;;9.80;99.90;;;;;;5018797;28;20323;-75
2022/03/12 10:15:31;;;;;;;28.65;21.92;;;10.00;99.90;;;;;;5024800;28;20192;-73
2022/03/12 10:17:59;;;;;;;27.27;21.80;;;10.30;99.90;;;;;;5015293;28;20517;-78
2022/03/12 10:20:26;;;;;;;29.00;23.20;;;10.30;99.90;;;;;;5021244;28;20206;-73
2022/03/12 10:22:55;;;;;;;27.92;21.85;;;10.40;99.90;;;;;;5023141;28;20641;-74
2022/03/12 10:25:23;;;;;;;26.77;21.73;;;10.30;99.90;;;;;;5023862;28;20216;-74
2022/03/12 10:27:51;;;;;;;30.48;23.92;;;10.00;99.90;;;;;;5025555;28;20337;-76
2022/03/12 10:30:18;;;;;;;26.02;21.90;;;9.70;99.90;;;;;;5019630;28;20210;-74
2022/03/12 10:32:48;;;;;;;27.58;21.17;;;9.50;99.90;;;;;;5025459;28;20231;-76
2022/03/12 10:35:18;;;;;;;27.25;21.48;;;9.40;99.90;;;;;;5024437;28;20249;-73
2022/03/12 10:37:46;;;;;;;28.00;21.33;;;9.20;99.90;;;;;;5028807;28;20223;-73
2022/03/12 10:40:18;;;;;;;31.00;22.45;;;9.00;99.90;;;;;;5024521;28;20196;-74
2022/03/12 10:42:49;;;;;;;25.50;22.00;;;8.80;99.90;;;;;;5022657;28;20234;-75
2022/03/12 10:45:18;;;;;;;24.75;19.80;;;8.70;99.90;;;;;;5024794;28;20219;-77
2022/03/12 10:47:47;;;;;;;26.63;20.77;;;8.60;99.90;;;;;;5036482;28;20223;-75
2022/03/12 10:50:18;;;;;;;27.88;21.02;;;8.70;99.90;;;;;;5023966;28;20204;-76
2022/03/12 10:52:49;;;;;;;22.88;19.73;;;8.80;99.90;;;;;;5023752;28;20241;-77
2022/03/12 10:55:26;;;;;;;26.35;20.02;;;9.10;99.90;;;;;;5021470;28;20192;-76
2022/03/12 10:58:05;;;;;;;24.95;20.17;;;9.50;99.90;;;;;;5017216;28;20234;-74
2022/03/12 11:00:38;;;;;;;26.52;20.25;;;9.60;99.90;;;;;;5025257;28;20685;-75
2022/03/12 11:03:10;;;;;;;30.48;20.85;;;9.40;99.90;;;;;;5018365;28;20824;-75
2022/03/12 11:05:38;;;;;;;27.45;20.33;;;9.40;99.90;;;;;;5021974;28;20228;-74
2022/03/12 11:08:20;;;;;;;25.63;21.23;;;9.50;99.90;;;;;;5029190;28;20231;-75
2022/03/12 11:11:11;;;;;;;24.23;19.98;;;9.40;99.90;;;;;;5030515;28;20735;-73
2022/03/12 11:13:44;;;;;;;21.67;18.25;;;9.50;99.90;;;;;;5024081;28;20994;-76
2022/03/12 11:16:18;;;;;;;22.80;19.83;;;9.50;99.90;;;;;;5028844;28;20223;-76
2022/03/12 11:19:00;;;;;;;27.10;21.00;;;9.70;99.90;;;;;;5027826;28;20229;-75
2022/03/12 11:21:50;;;;;;;23.92;21.38;;;9.70;99.90;;;;;;5027830;28;20281;-75
2022/03/12 11:25:15;;;;;;;26.17;22.58;;;9.50;99.90;;;;;;5029239;28;20219;-76
2022/03/12 11:28:04;;;;;;;24.58;20.45;;;9.10;99.90;;;;;;5030201;28;20207;-77
2022/03/12 11:30:37;;;;;;;30.17;23.27;;;9.00;99.90;;;;;;5018334;28;20224;-77
2022/03/12 11:33:05;;;;;;;26.35;22.60;;;9.10;99.90;;;;;;5021873;28;20197;-76
2022/03/12 11:35:42;;;;;;;26.67;20.25;;;9.10;99.90;;;;;;5027042;28;20223;-75
2022/03/12 11:38:15;;;;;;;25.60;20.58;;;9.30;99.90;;;;;;5025762;28;20666;-76
2022/03/12 11:40:44;;;;;;;27.85;21.95;;;9.50;99.90;;;;;;5024633;28;20235;-75
2022/03/12 11:43:26;;;;;;;29.42;23.77;;;9.50;99.90;;;;;;5015838;28;20274;-74
2022/03/12 11:45:59;;;;;;;28.88;21.88;;;9.50;99.90;;;;;;5021956;28;20310;-76
2022/03/12 11:48:28;;;;;;;29.35;22.98;;;9.40;99.90;;;;;;5021916;28;20792;-77
2022/03/12 11:50:55;;;;;;;30.15;22.30;;;9.50;99.90;;;;;;5020794;28;20219;-75
2022/03/12 11:56:44;;;;;;;29.02;23.40;;;9.70;99.90;;;;;;5019094;28;20241;-73
2022/03/12 11:59:12;;;;;;;32.63;22.73;;;9.80;99.90;;;;;;5022287;28;20278;-78
2022/03/12 12:01:40;;;;;;;30.42;22.45;;;9.80;99.90;;;;;;5022355;28;20616;-76
2022/03/12 12:04:07;;;;;;;28.58;23.00;;;9.80;99.90;;;;;;5027466;28;20697;-76
2022/03/12 12:06:34;;;;;;;29.73;23.05;;;9.90;99.90;;;;;;5020028;28;20207;-74
2022/03/12 12:09:02;;;;;;;29.92;23.90;;;9.90;99.90;;;;;;5021178;28;20231;-76
2022/03/12 12:11:35;;;;;;;29.92;21.77;;;9.80;99.90;;;;;;5034008;28;20215;-77
2022/03/12 12:14:02;;;;;;;29.30;23.45;;;9.70;99.90;;;;;;5027351;28;20649;-76
2022/03/12 12:16:30;;;;;;;27.60;22.77;;;9.60;99.90;;;;;;5022736;28;20208;-74
2022/03/12 12:18:57;;;;;;;27.52;22.08;;;9.50;99.90;;;;;;5018624;28;20226;-77
2022/03/12 12:21:25;;;;;;;27.48;22.85;;;9.50;99.90;;;;;;5021367;28;20219;-76
2022/03/12 12:23:52;;;;;;;27.40;21.73;;;9.50;99.90;;;;;;5023077;28;20689;-75
2022/03/12 12:26:20;;;;;;;25.35;21.35;;;9.50;99.90;;;;;;5021188;28;20198;-76
2022/03/12 12:28:50;;;;;;;28.05;23.35;;;9.50;99.90;;;;;;5018168;28;21083;-76
2022/03/12 12:31:24;;;;;;;29.45;23.25;;;9.60;99.90;;;;;;5024761;28;20582;-76
2022/03/12 12:33:55;;;;;;;27.67;23.35;;;9.60;99.90;;;;;;5017743;28;20773;-77
2022/03/12 12:36:23;;;;;;;31.13;24.05;;;9.50;99.90;;;;;;5025769;28;20334;-77
2022/03/12 12:39:08;;;;;;;25.80;21.55;;;9.40;99.90;;;;;;5028814;28;20230;-75
2022/03/12 12:41:56;;;;;;;26.92;21.48;;;9.30;99.90;;;;;;5024653;28;20297;-75
2022/03/12 12:44:41;;;;;;;27.75;21.50;;;9.40;99.90;;;;;;5022426;28;20223;-75
2022/03/12 12:47:10;;;;;;;26.33;21.73;;;9.40;99.90;;;;;;5023226;28;20543;-78
2022/03/12 12:49:40;;;;;;;24.67;20.60;;;9.40;99.90;;;;;;5023078;28;20248;-76
2022/03/12 12:52:09;;;;;;;28.27;21.80;;;9.40;99.90;;;;;;5023042;28;20239;-76